sensor_id;sensor_type;location;lat;lon;timestamp;P1;durP1;ratioP1;P2;durP2;ratioP2
33696;SDS011;20031;43.416;23.232;2022-09-25T00:01:31;3.80;;;2.00;;
33696;SDS011;20031;43.416;23.232;2022-09-25T00:03:57;4.07;;;2.30;;
33696;SDS011;20031;43.416;23.232;2022-09-25T00:06:23;3.00;;;2.03;;
33696;SDS011;20031;43.416;23.232;2022-09-25T00:08:50;5.05;;;2.38;;
33696;SDS011;20031;43.416;23.232;2022-09-25T00:11:20;4.25;;;2.00;;
33696;SDS011;20031;43.416;23.232;2022-09-25T00:13:52;2.77;;;1.97;;
33696;SDS011;20031;43.416;23.232;2022-09-25T00:16:20;2.65;;;2.10;;
33696;SDS011;20031;43.416;23.232;2022-09-25T00:18:50;4.43;;;1.95;;
33696;SDS011;20031;43.416;23.232;2022-09-25T00:21:35;3.08;;;2.10;;
33696;SDS011;20031;43.416;23.232;2022-09-25T00:24:02;2.50;;;2.10;;
33696;SDS011;20031;43.416;23.232;2022-09-25T00:26:30;2.88;;;2.10;;
33696;SDS011;20031;43.416;23.232;2022-09-25T00:28:57;3.72;;;2.00;;
33696;SDS011;20031;43.416;23.232;2022-09-25T00:31:25;2.13;;;1.80;;
33696;SDS011;20031;43.416;23.232;2022-09-25T00:34:02;2.38;;;1.80;;
33696;SDS011;20031;43.416;23.232;2022-09-25T00:36:29;5.60;;;1.90;;
33696;SDS011;20031;43.416;23.232;2022-09-25T00:38:55;3.55;;;2.10;;
33696;SDS011;20031;43.416;23.232;2022-09-25T00:41:22;3.55;;;2.20;;
33696;SDS011;20031;43.416;23.232;2022-09-25T00:43:50;3.70;;;2.20;;
33696;SDS011;20031;43.416;23.232;2022-09-25T00:48:52;2.00;;;1.80;;
33696;SDS011;20031;43.416;23.232;2022-09-25T00:51:24;5.95;;;2.05;;
33696;SDS011;20031;43.416;23.232;2022-09-25T00:53:57;3.03;;;1.98;;
33696;SDS011;20031;43.416;23.232;2022-09-25T00:56:25;4.00;;;1.83;;
33696;SDS011;20031;43.416;23.232;2022-09-25T00:58:54;3.70;;;2.00;;
33696;SDS011;20031;43.416;23.232;2022-09-25T01:01:19;4.72;;;1.88;;
33696;SDS011;20031;43.416;23.232;2022-09-25T01:03:46;5.00;;;1.98;;
33696;SDS011;20031;43.416;23.232;2022-09-25T01:06:13;3.75;;;2.00;;
33696;SDS011;20031;43.416;23.232;2022-09-25T01:08:39;3.80;;;1.92;;
33696;SDS011;20031;43.416;23.232;2022-09-25T01:11:05;2.58;;;1.90;;
33696;SDS011;20031;43.416;23.232;2022-09-25T01:13:31;4.22;;;2.20;;
33696;SDS011;20031;43.416;23.232;2022-09-25T01:16:13;3.20;;;2.50;;
33696;SDS011;20031;43.416;23.232;2022-09-25T01:18:52;3.72;;;2.30;;
33696;SDS011;20031;43.416;23.232;2022-09-25T01:29:56;2.63;;;1.90;;
33696;SDS011;20031;43.416;23.232;2022-09-25T01:40:50;7.80;;;3.20;;
33696;SDS011;20031;43.416;23.232;2022-09-25T01:46:20;8.15;;;2.90;;
33696;SDS011;20031;43.416;23.232;2022-09-25T01:48:50;10.10;;;3.10;;
33696;SDS011;20031;43.416;23.232;2022-09-25T01:51:29;10.20;;;3.97;;
33696;SDS011;20031;43.416;23.232;2022-09-25T01:54:06;5.80;;;2.67;;
33696;SDS011;20031;43.416;23.232;2022-09-25T01:56:41;6.30;;;2.88;;
33696;SDS011;20031;43.416;23.232;2022-09-25T01:59:16;3.45;;;2.72;;
33696;SDS011;20031;43.416;23.232;2022-09-25T02:01:49;6.60;;;2.58;;
33696;SDS011;20031;43.416;23.232;2022-09-25T02:04:22;5.20;;;3.20;;
33696;SDS011;20031;43.416;23.232;2022-09-25T02:07:09;6.50;;;2.72;;
33696;SDS011;20031;43.416;23.232;2022-09-25T02:09:45;7.57;;;3.03;;
33696;SDS011;20031;43.416;23.232;2022-09-25T02:12:30;6.35;;;2.80;;
33696;SDS011;20031;43.416;23.232;2022-09-25T02:15:04;7.22;;;3.28;;
33696;SDS011;20031;43.416;23.232;2022-09-25T02:17:37;6.03;;;3.33;;
33696;SDS011;20031;43.416;23.232;2022-09-25T02:20:36;6.72;;;3.67;;
33696;SDS011;20031;43.416;23.232;2022-09-25T02:23:23;8.25;;;3.92;;
33696;SDS011;20031;43.416;23.232;2022-09-25T02:28:27;6.70;;;3.63;;
33696;SDS011;20031;43.416;23.232;2022-09-25T02:30:53;6.88;;;3.75;;
33696;SDS011;20031;43.416;23.232;2022-09-25T02:33:21;5.93;;;4.07;;
33696;SDS011;20031;43.416;23.232;2022-09-25T02:35:48;7.53;;;3.83;;
33696;SDS011;20031;43.416;23.232;2022-09-25T02:38:14;8.23;;;3.95;;
33696;SDS011;20031;43.416;23.232;2022-09-25T02:46:21;9.77;;;3.72;;
33696;SDS011;20031;43.416;23.232;2022-09-25T02:48:53;7.80;;;3.63;;
33696;SDS011;20031;43.416;23.232;2022-09-25T02:54:02;6.28;;;3.95;;
33696;SDS011;20031;43.416;23.232;2022-09-25T02:56:34;7.22;;;3.80;;
33696;SDS011;20031;43.416;23.232;2022-09-25T02:59:07;4.35;;;3.30;;
33696;SDS011;20031;43.416;23.232;2022-09-25T03:01:39;9.35;;;3.72;;
33696;SDS011;20031;43.416;23.232;2022-09-25T03:04:06;8.20;;;3.78;;
33696;SDS011;20031;43.416;23.232;2022-09-25T03:06:33;6.63;;;3.45;;
33696;SDS011;20031;43.416;23.232;2022-09-25T03:09:01;8.27;;;3.95;;
33696;SDS011;20031;43.416;23.232;2022-09-25T03:11:28;6.78;;;3.38;;
33696;SDS011;20031;43.416;23.232;2022-09-25T03:13:58;4.55;;;3.15;;
33696;SDS011;20031;43.416;23.232;2022-09-25T03:16:28;4.07;;;3.00;;
33696;SDS011;20031;43.416;23.232;2022-09-25T03:19:04;6.50;;;3.42;;
33696;SDS011;20031;43.416;23.232;2022-09-25T03:21:30;6.22;;;3.75;;
33696;SDS011;20031;43.416;23.232;2022-09-25T03:23:56;5.63;;;3.40;;
33696;SDS011;20031;43.416;23.232;2022-09-25T03:26:23;6.93;;;3.03;;
33696;SDS011;20031;43.416;23.232;2022-09-25T03:28:49;6.10;;;3.13;;
33696;SDS011;20031;43.416;23.232;2022-09-25T03:31:15;5.00;;;2.97;;
33696;SDS011;20031;43.416;23.232;2022-09-25T03:33:42;11.30;;;3.58;;
33696;SDS011;20031;43.416;23.232;2022-09-25T03:36:16;6.63;;;3.30;;
33696;SDS011;20031;43.416;23.232;2022-09-25T03:38:45;7.57;;;3.95;;
33696;SDS011;20031;43.416;23.232;2022-09-25T03:41:13;8.75;;;5.00;;
33696;SDS011;20031;43.416;23.232;2022-09-25T03:43:44;10.88;;;4.00;;
33696;SDS011;20031;43.416;23.232;2022-09-25T03:46:13;6.20;;;2.90;;
33696;SDS011;20031;43.416;23.232;2022-09-25T03:48:39;8.55;;;3.00;;
33696;SDS011;20031;43.416;23.232;2022-09-25T03:51:06;9.35;;;4.22;;
33696;SDS011;20031;43.416;23.232;2022-09-25T03:53:32;9.05;;;3.08;;
33696;SDS011;20031;43.416;23.232;2022-09-25T03:56:01;9.85;;;2.97;;
33696;SDS011;20031;43.416;23.232;2022-09-25T03:58:28;8.48;;;2.70;;
33696;SDS011;20031;43.416;23.232;2022-09-25T04:00:54;10.38;;;3.33;;
33696;SDS011;20031;43.416;23.232;2022-09-25T04:03:21;8.05;;;2.80;;
33696;SDS011;20031;43.416;23.232;2022-09-25T04:05:56;6.13;;;2.92;;
33696;SDS011;20031;43.416;23.232;2022-09-25T04:08:24;5.32;;;2.60;;
33696;SDS011;20031;43.416;23.232;2022-09-25T04:10:54;9.32;;;4.13;;
33696;SDS011;20031;43.416;23.232;2022-09-25T04:13:24;8.48;;;2.65;;
33696;SDS011;20031;43.416;23.232;2022-09-25T04:15:51;7.55;;;2.70;;
33696;SDS011;20031;43.416;23.232;2022-09-25T04:18:16;16.92;;;2.60;;
33696;SDS011;20031;43.416;23.232;2022-09-25T04:20:42;8.18;;;2.42;;
33696;SDS011;20031;43.416;23.232;2022-09-25T04:23:08;22.10;;;2.55;;
33696;SDS011;20031;43.416;23.232;2022-09-25T04:25:33;13.40;;;2.97;;
33696;SDS011;20031;43.416;23.232;2022-09-25T04:27:58;25.83;;;2.95;;
33696;SDS011;20031;43.416;23.232;2022-09-25T04:30:25;12.32;;;2.78;;
33696;SDS011;20031;43.416;23.232;2022-09-25T04:32:51;10.45;;;2.65;;
33696;SDS011;20031;43.416;23.232;2022-09-25T04:35:35;21.70;;;3.40;;
33696;SDS011;20031;43.416;23.232;2022-09-25T04:38:01;8.88;;;2.80;;
33696;SDS011;20031;43.416;23.232;2022-09-25T04:40:27;16.20;;;3.30;;
33696;SDS011;20031;43.416;23.232;2022-09-25T04:42:54;19.27;;;3.30;;
33696;SDS011;20031;43.416;23.232;2022-09-25T04:45:23;7.60;;;2.80;;
33696;SDS011;20031;43.416;23.232;2022-09-25T04:47:50;8.52;;;3.03;;
33696;SDS011;20031;43.416;23.232;2022-09-25T04:50:18;8.68;;;2.40;;
33696;SDS011;20031;43.416;23.232;2022-09-25T04:52:44;14.02;;;2.88;;
33696;SDS011;20031;43.416;23.232;2022-09-25T04:55:09;9.80;;;2.55;;
33696;SDS011;20031;43.416;23.232;2022-09-25T04:57:35;12.48;;;2.55;;
33696;SDS011;20031;43.416;23.232;2022-09-25T05:00:01;10.75;;;2.95;;
33696;SDS011;20031;43.416;23.232;2022-09-25T05:02:27;7.22;;;2.70;;
33696;SDS011;20031;43.416;23.232;2022-09-25T05:04:52;3.30;;;2.40;;
33696;SDS011;20031;43.416;23.232;2022-09-25T05:07:18;7.70;;;2.40;;
33696;SDS011;20031;43.416;23.232;2022-09-25T05:09:43;6.85;;;3.08;;
33696;SDS011;20031;43.416;23.232;2022-09-25T05:12:09;6.95;;;2.88;;
33696;SDS011;20031;43.416;23.232;2022-09-25T05:14:34;6.78;;;2.70;;
33696;SDS011;20031;43.416;23.232;2022-09-25T05:17:00;7.20;;;2.40;;
33696;SDS011;20031;43.416;23.232;2022-09-25T05:19:25;4.40;;;2.50;;
33696;SDS011;20031;43.416;23.232;2022-09-25T05:21:52;5.50;;;2.70;;
33696;SDS011;20031;43.416;23.232;2022-09-25T05:24:17;7.95;;;2.50;;
33696;SDS011;20031;43.416;23.232;2022-09-25T05:26:43;4.50;;;2.70;;
33696;SDS011;20031;43.416;23.232;2022-09-25T05:29:09;7.28;;;3.25;;
33696;SDS011;20031;43.416;23.232;2022-09-25T05:31:35;8.07;;;3.40;;
33696;SDS011;20031;43.416;23.232;2022-09-25T05:34:01;5.50;;;2.90;;
33696;SDS011;20031;43.416;23.232;2022-09-25T05:36:27;5.93;;;3.40;;
33696;SDS011;20031;43.416;23.232;2022-09-25T05:38:53;7.30;;;3.67;;
33696;SDS011;20031;43.416;23.232;2022-09-25T05:41:18;15.02;;;4.30;;
33696;SDS011;20031;43.416;23.232;2022-09-25T05:43:44;16.95;;;5.38;;
33696;SDS011;20031;43.416;23.232;2022-09-25T05:46:14;19.05;;;7.70;;
33696;SDS011;20031;43.416;23.232;2022-09-25T05:48:40;14.68;;;6.18;;
33696;SDS011;20031;43.416;23.232;2022-09-25T05:51:06;15.75;;;6.05;;
33696;SDS011;20031;43.416;23.232;2022-09-25T05:53:32;15.45;;;6.18;;
33696;SDS011;20031;43.416;23.232;2022-09-25T05:56:01;16.67;;;6.70;;
33696;SDS011;20031;43.416;23.232;2022-09-25T05:58:29;14.25;;;5.60;;
33696;SDS011;20031;43.416;23.232;2022-09-25T06:01:02;12.75;;;5.43;;
33696;SDS011;20031;43.416;23.232;2022-09-25T06:03:29;20.58;;;5.75;;
33696;SDS011;20031;43.416;23.232;2022-09-25T06:05:56;17.40;;;5.70;;
33696;SDS011;20031;43.416;23.232;2022-09-25T06:08:22;11.70;;;5.43;;
33696;SDS011;20031;43.416;23.232;2022-09-25T06:10:54;9.52;;;5.30;;
33696;SDS011;20031;43.416;23.232;2022-09-25T06:13:22;14.07;;;4.68;;
33696;SDS011;20031;43.416;23.232;2022-09-25T06:15:49;10.65;;;4.88;;
33696;SDS011;20031;43.416;23.232;2022-09-25T06:18:17;18.20;;;6.30;;
33696;SDS011;20031;43.416;23.232;2022-09-25T06:20:45;9.75;;;5.82;;
33696;SDS011;20031;43.416;23.232;2022-09-25T06:23:10;18.00;;;6.05;;
33696;SDS011;20031;43.416;23.232;2022-09-25T06:25:36;16.13;;;5.90;;
33696;SDS011;20031;43.416;23.232;2022-09-25T06:28:01;12.32;;;5.70;;
33696;SDS011;20031;43.416;23.232;2022-09-25T06:30:28;10.18;;;4.70;;
33696;SDS011;20031;43.416;23.232;2022-09-25T06:33:11;12.43;;;5.53;;
33696;SDS011;20031;43.416;23.232;2022-09-25T06:35:41;12.20;;;5.10;;
33696;SDS011;20031;43.416;23.232;2022-09-25T06:38:09;12.05;;;5.80;;
33696;SDS011;20031;43.416;23.232;2022-09-25T06:40:35;9.50;;;5.38;;
33696;SDS011;20031;43.416;23.232;2022-09-25T06:43:04;10.00;;;4.57;;
33696;SDS011;20031;43.416;23.232;2022-09-25T06:45:32;10.75;;;5.88;;
33696;SDS011;20031;43.416;23.232;2022-09-25T06:48:08;18.02;;;5.00;;
33696;SDS011;20031;43.416;23.232;2022-09-25T06:50:44;13.90;;;4.80;;
33696;SDS011;20031;43.416;23.232;2022-09-25T06:53:14;12.38;;;5.40;;
33696;SDS011;20031;43.416;23.232;2022-09-25T06:55:41;9.15;;;4.45;;
33696;SDS011;20031;43.416;23.232;2022-09-25T06:58:09;24.67;;;5.70;;
33696;SDS011;20031;43.416;23.232;2022-09-25T07:00:37;11.00;;;5.95;;
33696;SDS011;20031;43.416;23.232;2022-09-25T07:03:02;10.73;;;5.20;;
33696;SDS011;20031;43.416;23.232;2022-09-25T07:05:46;11.27;;;5.07;;
33696;SDS011;20031;43.416;23.232;2022-09-25T07:08:13;30.08;;;10.65;;
33696;SDS011;20031;43.416;23.232;2022-09-25T07:10:45;19.20;;;6.03;;
33696;SDS011;20031;43.416;23.232;2022-09-25T07:13:12;16.45;;;6.63;;
33696;SDS011;20031;43.416;23.232;2022-09-25T07:15:37;17.08;;;6.38;;
33696;SDS011;20031;43.416;23.232;2022-09-25T07:18:03;17.98;;;6.95;;
33696;SDS011;20031;43.416;23.232;2022-09-25T07:20:28;18.75;;;7.05;;
33696;SDS011;20031;43.416;23.232;2022-09-25T07:22:57;19.63;;;7.15;;
33696;SDS011;20031;43.416;23.232;2022-09-25T07:25:28;13.85;;;6.43;;
33696;SDS011;20031;43.416;23.232;2022-09-25T07:27:54;13.35;;;6.38;;
33696;SDS011;20031;43.416;23.232;2022-09-25T07:30:19;13.65;;;6.00;;
33696;SDS011;20031;43.416;23.232;2022-09-25T07:32:44;14.13;;;5.78;;
33696;SDS011;20031;43.416;23.232;2022-09-25T07:35:10;18.73;;;4.60;;
33696;SDS011;20031;43.416;23.232;2022-09-25T07:37:35;17.77;;;4.28;;
33696;SDS011;20031;43.416;23.232;2022-09-25T07:40:01;22.52;;;5.07;;
33696;SDS011;20031;43.416;23.232;2022-09-25T07:42:27;6.70;;;3.88;;
33696;SDS011;20031;43.416;23.232;2022-09-25T07:44:52;6.90;;;4.07;;
33696;SDS011;20031;43.416;23.232;2022-09-25T07:47:19;9.02;;;3.92;;
33696;SDS011;20031;43.416;23.232;2022-09-25T07:49:45;9.68;;;4.07;;
33696;SDS011;20031;43.416;23.232;2022-09-25T07:52:10;11.15;;;3.80;;
33696;SDS011;20031;43.416;23.232;2022-09-25T07:54:37;9.65;;;4.00;;
33696;SDS011;20031;43.416;23.232;2022-09-25T07:57:03;13.60;;;3.70;;
33696;SDS011;20031;43.416;23.232;2022-09-25T07:59:28;9.15;;;3.88;;
33696;SDS011;20031;43.416;23.232;2022-09-25T08:01:54;10.43;;;4.30;;
33696;SDS011;20031;43.416;23.232;2022-09-25T08:04:19;6.38;;;4.10;;
33696;SDS011;20031;43.416;23.232;2022-09-25T08:06:45;6.72;;;4.13;;
33696;SDS011;20031;43.416;23.232;2022-09-25T08:09:10;10.25;;;4.47;;
33696;SDS011;20031;43.416;23.232;2022-09-25T08:11:36;9.13;;;4.00;;
33696;SDS011;20031;43.416;23.232;2022-09-25T08:14:02;11.20;;;4.53;;
33696;SDS011;20031;43.416;23.232;2022-09-25T08:16:27;8.95;;;4.40;;
33696;SDS011;20031;43.416;23.232;2022-09-25T08:18:52;10.20;;;4.35;;
33696;SDS011;20031;43.416;23.232;2022-09-25T08:21:18;11.80;;;4.20;;
33696;SDS011;20031;43.416;23.232;2022-09-25T08:23:48;11.43;;;4.22;;
33696;SDS011;20031;43.416;23.232;2022-09-25T08:26:16;11.13;;;4.13;;
33696;SDS011;20031;43.416;23.232;2022-09-25T08:28:42;11.15;;;4.22;;
33696;SDS011;20031;43.416;23.232;2022-09-25T08:31:08;9.02;;;4.30;;
33696;SDS011;20031;43.416;23.232;2022-09-25T08:33:34;10.60;;;4.20;;
33696;SDS011;20031;43.416;23.232;2022-09-25T08:36:01;11.30;;;4.30;;
33696;SDS011;20031;43.416;23.232;2022-09-25T08:38:28;11.57;;;4.45;;
33696;SDS011;20031;43.416;23.232;2022-09-25T08:43:25;8.93;;;4.32;;
33696;SDS011;20031;43.416;23.232;2022-09-25T08:45:52;11.35;;;4.18;;
33696;SDS011;20031;43.416;23.232;2022-09-25T08:48:42;7.68;;;3.85;;
33696;SDS011;20031;43.416;23.232;2022-09-25T08:51:29;9.02;;;3.97;;
33696;SDS011;20031;43.416;23.232;2022-09-25T08:53:56;7.32;;;3.20;;
33696;SDS011;20031;43.416;23.232;2022-09-25T08:56:22;8.82;;;3.30;;
33696;SDS011;20031;43.416;23.232;2022-09-25T08:58:50;10.88;;;3.28;;
33696;SDS011;20031;43.416;23.232;2022-09-25T09:01:25;7.35;;;3.40;;
33696;SDS011;20031;43.416;23.232;2022-09-25T09:04:03;6.22;;;2.97;;
33696;SDS011;20031;43.416;23.232;2022-09-25T09:07:07;4.90;;;2.95;;
33696;SDS011;20031;43.416;23.232;2022-09-25T09:09:36;7.25;;;3.50;;
33696;SDS011;20031;43.416;23.232;2022-09-25T09:12:08;9.80;;;3.42;;
33696;SDS011;20031;43.416;23.232;2022-09-25T09:15:03;11.30;;;3.03;;
33696;SDS011;20031;43.416;23.232;2022-09-25T09:17:40;9.55;;;3.05;;
33696;SDS011;20031;43.416;23.232;2022-09-25T09:20:16;7.90;;;2.90;;
33696;SDS011;20031;43.416;23.232;2022-09-25T09:22:50;4.43;;;2.50;;
33696;SDS011;20031;43.416;23.232;2022-09-25T09:39:22;13.07;;;3.60;;
33696;SDS011;20031;43.416;23.232;2022-09-25T09:46:58;7.63;;;3.30;;
33696;SDS011;20031;43.416;23.232;2022-09-25T09:49:52;7.50;;;3.30;;
33696;SDS011;20031;43.416;23.232;2022-09-25T09:52:38;11.30;;;3.47;;
33696;SDS011;20031;43.416;23.232;2022-09-25T09:55:18;7.13;;;3.13;;
33696;SDS011;20031;43.416;23.232;2022-09-25T09:57:54;10.90;;;3.22;;
33696;SDS011;20031;43.416;23.232;2022-09-25T10:00:23;5.55;;;3.17;;
33696;SDS011;20031;43.416;23.232;2022-09-25T10:02:59;6.43;;;3.30;;
33696;SDS011;20031;43.416;23.232;2022-09-25T10:05:30;7.68;;;3.50;;
33696;SDS011;20031;43.416;23.232;2022-09-25T10:07:58;8.80;;;3.10;;
33696;SDS011;20031;43.416;23.232;2022-09-25T10:10:34;6.25;;;3.10;;
33696;SDS011;20031;43.416;23.232;2022-09-25T10:13:02;7.53;;;3.30;;
33696;SDS011;20031;43.416;23.232;2022-09-25T10:15:35;7.10;;;3.00;;
33696;SDS011;20031;43.416;23.232;2022-09-25T10:18:05;7.65;;;2.83;;
33696;SDS011;20031;43.416;23.232;2022-09-25T10:20:40;8.05;;;2.78;;
33696;SDS011;20031;43.416;23.232;2022-09-25T10:23:52;9.88;;;3.05;;
33696;SDS011;20031;43.416;23.232;2022-09-25T10:29:00;4.38;;;2.38;;
33696;SDS011;20031;43.416;23.232;2022-09-25T10:31:29;5.32;;;2.30;;
33696;SDS011;20031;43.416;23.232;2022-09-25T10:36:31;6.25;;;2.60;;
33696;SDS011;20031;43.416;23.232;2022-09-25T10:39:00;9.35;;;2.92;;
33696;SDS011;20031;43.416;23.232;2022-09-25T10:41:27;7.13;;;2.45;;
33696;SDS011;20031;43.416;23.232;2022-09-25T10:46:28;9.30;;;2.85;;
33696;SDS011;20031;43.416;23.232;2022-09-25T10:49:14;5.07;;;2.58;;
33696;SDS011;20031;43.416;23.232;2022-09-25T10:52:04;8.73;;;2.42;;
33696;SDS011;20031;43.416;23.232;2022-09-25T10:54:31;4.75;;;2.35;;
33696;SDS011;20031;43.416;23.232;2022-09-25T10:56:57;5.72;;;1.95;;
33696;SDS011;20031;43.416;23.232;2022-09-25T10:59:23;5.57;;;2.50;;
33696;SDS011;20031;43.416;23.232;2022-09-25T11:01:49;6.45;;;2.35;;
33696;SDS011;20031;43.416;23.232;2022-09-25T11:04:25;4.85;;;2.03;;
33696;SDS011;20031;43.416;23.232;2022-09-25T11:07:16;4.97;;;2.50;;
33696;SDS011;20031;43.416;23.232;2022-09-25T11:09:51;5.78;;;2.38;;
33696;SDS011;20031;43.416;23.232;2022-09-25T11:12:20;5.57;;;2.33;;
33696;SDS011;20031;43.416;23.232;2022-09-25T11:15:03;8.60;;;2.47;;
33696;SDS011;20031;43.416;23.232;2022-09-25T11:17:37;9.70;;;2.60;;
33696;SDS011;20031;43.416;23.232;2022-09-25T11:22:44;8.90;;;2.63;;
33696;SDS011;20031;43.416;23.232;2022-09-25T11:25:16;5.82;;;2.63;;
33696;SDS011;20031;43.416;23.232;2022-09-25T11:27:52;5.50;;;2.60;;
33696;SDS011;20031;43.416;23.232;2022-09-25T11:30:23;4.88;;;2.20;;
33696;SDS011;20031;43.416;23.232;2022-09-25T11:33:05;4.72;;;2.70;;
33696;SDS011;20031;43.416;23.232;2022-09-25T11:38:24;6.20;;;2.10;;
33696;SDS011;20031;43.416;23.232;2022-09-25T11:44:00;7.72;;;2.97;;
33696;SDS011;20031;43.416;23.232;2022-09-25T11:46:38;5.93;;;2.70;;
33696;SDS011;20031;43.416;23.232;2022-09-25T11:54:41;12.35;;;6.35;;
33696;SDS011;20031;43.416;23.232;2022-09-25T11:57:30;15.82;;;5.97;;
33696;SDS011;20031;43.416;23.232;2022-09-25T12:00:03;22.83;;;7.38;;
33696;SDS011;20031;43.416;23.232;2022-09-25T12:02:55;12.27;;;3.30;;
33696;SDS011;20031;43.416;23.232;2022-09-25T12:13:42;17.25;;;3.38;;
33696;SDS011;20031;43.416;23.232;2022-09-25T12:19:06;8.88;;;4.18;;
33696;SDS011;20031;43.416;23.232;2022-09-25T12:24:30;30.08;;;3.38;;
33696;SDS011;20031;43.416;23.232;2022-09-25T12:37:37;11.88;;;4.30;;
33696;SDS011;20031;43.416;23.232;2022-09-25T12:40:19;9.00;;;4.32;;
33696;SDS011;20031;43.416;23.232;2022-09-25T12:48:43;14.73;;;4.18;;
33696;SDS011;20031;43.416;23.232;2022-09-25T12:51:16;10.25;;;3.97;;
33696;SDS011;20031;43.416;23.232;2022-09-25T12:56:39;11.68;;;3.58;;
33696;SDS011;20031;43.416;23.232;2022-09-25T12:59:14;14.27;;;2.95;;
33696;SDS011;20031;43.416;23.232;2022-09-25T13:07:01;7.28;;;2.78;;
33696;SDS011;20031;43.416;23.232;2022-09-25T13:09:48;11.20;;;2.78;;
33696;SDS011;20031;43.416;23.232;2022-09-25T13:12:57;5.55;;;2.30;;
33696;SDS011;20031;43.416;23.232;2022-09-25T13:17:35;5.90;;;2.50;;
33696;SDS011;20031;43.416;23.232;2022-09-25T13:25:30;11.50;;;2.10;;
33696;SDS011;20031;43.416;23.232;2022-09-25T13:28:06;4.57;;;2.00;;
33696;SDS011;20031;43.416;23.232;2022-09-25T13:30:33;6.05;;;2.10;;
33696;SDS011;20031;43.416;23.232;2022-09-25T13:33:00;4.68;;;1.90;;
33696;SDS011;20031;43.416;23.232;2022-09-25T13:35:28;7.57;;;2.22;;
33696;SDS011;20031;43.416;23.232;2022-09-25T13:38:07;6.30;;;2.30;;
33696;SDS011;20031;43.416;23.232;2022-09-25T13:40:37;3.40;;;2.22;;
33696;SDS011;20031;43.416;23.232;2022-09-25T13:43:26;4.15;;;2.10;;
33696;SDS011;20031;43.416;23.232;2022-09-25T13:48:51;9.20;;;2.75;;
33696;SDS011;20031;43.416;23.232;2022-09-25T13:53:54;6.32;;;2.70;;
33696;SDS011;20031;43.416;23.232;2022-09-25T14:01:38;8.48;;;3.35;;
33696;SDS011;20031;43.416;23.232;2022-09-25T14:04:07;9.93;;;3.58;;
33696;SDS011;20031;43.416;23.232;2022-09-25T14:06:38;8.93;;;3.90;;
33696;SDS011;20031;43.416;23.232;2022-09-25T14:09:13;17.08;;;3.97;;
33696;SDS011;20031;43.416;23.232;2022-09-25T14:12:22;8.90;;;3.45;;
33696;SDS011;20031;43.416;23.232;2022-09-25T14:14:55;9.70;;;3.53;;
33696;SDS011;20031;43.416;23.232;2022-09-25T14:17:26;10.35;;;3.67;;
33696;SDS011;20031;43.416;23.232;2022-09-25T14:19:54;11.02;;;3.22;;
33696;SDS011;20031;43.416;23.232;2022-09-25T14:22:31;12.20;;;4.63;;
33696;SDS011;20031;43.416;23.232;2022-09-25T14:25:03;7.78;;;3.47;;
33696;SDS011;20031;43.416;23.232;2022-09-25T14:27:50;6.53;;;3.40;;
33696;SDS011;20031;43.416;23.232;2022-09-25T14:30:17;10.13;;;3.35;;
33696;SDS011;20031;43.416;23.232;2022-09-25T14:35:15;10.85;;;3.58;;
33696;SDS011;20031;43.416;23.232;2022-09-25T14:40:42;9.50;;;3.42;;
33696;SDS011;20031;43.416;23.232;2022-09-25T14:48:46;6.32;;;3.50;;
33696;SDS011;20031;43.416;23.232;2022-09-25T14:51:22;9.73;;;3.40;;
33696;SDS011;20031;43.416;23.232;2022-09-25T14:53:52;15.07;;;3.83;;
33696;SDS011;20031;43.416;23.232;2022-09-25T14:56:25;13.65;;;3.03;;
33696;SDS011;20031;43.416;23.232;2022-09-25T14:58:56;15.73;;;3.28;;
33696;SDS011;20031;43.416;23.232;2022-09-25T15:01:30;14.68;;;3.10;;
33696;SDS011;20031;43.416;23.232;2022-09-25T15:04:05;15.07;;;3.47;;
33696;SDS011;20031;43.416;23.232;2022-09-25T15:06:36;20.25;;;4.03;;
33696;SDS011;20031;43.416;23.232;2022-09-25T15:09:27;21.67;;;4.05;;
33696;SDS011;20031;43.416;23.232;2022-09-25T15:11:53;13.05;;;3.80;;
33696;SDS011;20031;43.416;23.232;2022-09-25T15:14:19;17.13;;;3.50;;
33696;SDS011;20031;43.416;23.232;2022-09-25T15:16:46;13.35;;;3.58;;
33696;SDS011;20031;43.416;23.232;2022-09-25T15:19:32;6.32;;;3.08;;
33696;SDS011;20031;43.416;23.232;2022-09-25T15:22:06;7.13;;;2.83;;
33696;SDS011;20031;43.416;23.232;2022-09-25T15:24:34;9.63;;;3.17;;
33696;SDS011;20031;43.416;23.232;2022-09-25T15:27:02;7.20;;;3.13;;
33696;SDS011;20031;43.416;23.232;2022-09-25T15:29:36;7.40;;;2.88;;
33696;SDS011;20031;43.416;23.232;2022-09-25T15:32:05;11.03;;;3.17;;
33696;SDS011;20031;43.416;23.232;2022-09-25T15:34:31;11.27;;;2.80;;
33696;SDS011;20031;43.416;23.232;2022-09-25T15:37:14;6.53;;;2.83;;
33696;SDS011;20031;43.416;23.232;2022-09-25T15:39:53;9.43;;;2.83;;
33696;SDS011;20031;43.416;23.232;2022-09-25T15:42:19;8.85;;;3.25;;
33696;SDS011;20031;43.416;23.232;2022-09-25T15:44:45;5.32;;;2.90;;
33696;SDS011;20031;43.416;23.232;2022-09-25T15:47:45;8.93;;;2.90;;
33696;SDS011;20031;43.416;23.232;2022-09-25T15:50:14;7.40;;;3.30;;
33696;SDS011;20031;43.416;23.232;2022-09-25T15:52:47;5.72;;;3.10;;
33696;SDS011;20031;43.416;23.232;2022-09-25T15:55:17;9.18;;;3.40;;
33696;SDS011;20031;43.416;23.232;2022-09-25T15:57:44;10.75;;;3.28;;
33696;SDS011;20031;43.416;23.232;2022-09-25T16:00:18;11.25;;;3.03;;
33696;SDS011;20031;43.416;23.232;2022-09-25T16:05:48;7.60;;;3.10;;
33696;SDS011;20031;43.416;23.232;2022-09-25T16:11:04;18.60;;;3.55;;
33696;SDS011;20031;43.416;23.232;2022-09-25T16:13:38;9.00;;;3.30;;
33696;SDS011;20031;43.416;23.232;2022-09-25T16:16:15;26.77;;;3.78;;
33696;SDS011;20031;43.416;23.232;2022-09-25T16:18:53;16.67;;;5.13;;
33696;SDS011;20031;43.416;23.232;2022-09-25T16:21:27;22.67;;;5.20;;
33696;SDS011;20031;43.416;23.232;2022-09-25T16:23:56;30.95;;;11.13;;
33696;SDS011;20031;43.416;23.232;2022-09-25T16:26:34;30.70;;;11.32;;
33696;SDS011;20031;43.416;23.232;2022-09-25T16:31:41;18.58;;;7.00;;
33696;SDS011;20031;43.416;23.232;2022-09-25T16:34:31;20.95;;;6.57;;
33696;SDS011;20031;43.416;23.232;2022-09-25T16:37:00;22.45;;;6.88;;
33696;SDS011;20031;43.416;23.232;2022-09-25T16:39:35;22.58;;;7.15;;
33696;SDS011;20031;43.416;23.232;2022-09-25T16:44:46;26.95;;;7.22;;
33696;SDS011;20031;43.416;23.232;2022-09-25T16:47:14;34.08;;;8.80;;
33696;SDS011;20031;43.416;23.232;2022-09-25T16:49:42;34.28;;;9.88;;
33696;SDS011;20031;43.416;23.232;2022-09-25T16:52:10;31.00;;;9.35;;
33696;SDS011;20031;43.416;23.232;2022-09-25T16:54:45;30.98;;;8.88;;
33696;SDS011;20031;43.416;23.232;2022-09-25T16:57:15;46.17;;;13.60;;
33696;SDS011;20031;43.416;23.232;2022-09-25T16:59:41;35.53;;;8.70;;
33696;SDS011;20031;43.416;23.232;2022-09-25T17:02:09;17.15;;;7.15;;
33696;SDS011;20031;43.416;23.232;2022-09-25T17:04:56;14.20;;;6.40;;
33696;SDS011;20031;43.416;23.232;2022-09-25T17:08:13;14.30;;;6.72;;
33696;SDS011;20031;43.416;23.232;2022-09-25T17:10:40;20.17;;;6.03;;
33696;SDS011;20031;43.416;23.232;2022-09-25T17:13:06;20.08;;;6.68;;
33696;SDS011;20031;43.416;23.232;2022-09-25T17:15:32;13.98;;;5.90;;
33696;SDS011;20031;43.416;23.232;2022-09-25T17:18:00;17.05;;;6.32;;
33696;SDS011;20031;43.416;23.232;2022-09-25T17:20:27;17.77;;;6.97;;
33696;SDS011;20031;43.416;23.232;2022-09-25T17:22:55;18.58;;;6.30;;
33696;SDS011;20031;43.416;23.232;2022-09-25T17:25:21;14.80;;;6.15;;
33696;SDS011;20031;43.416;23.232;2022-09-25T17:27:48;12.13;;;5.38;;